Time;durP1;ratioP1;P1;durP2;ratioP2;P2;SDS_P1;SDS_P2;PMS_P1;PMS_P2;Temp;Humidity;BMP_temperature;BMP_pressure;BME280_temperature;BME280_humidity;BME280_pressure;Samples;Min_cycle;Max_cycle;Signal;HPM_P1;HPM_P2
2023/04/13 00:03:37;;;;;;;0.80;0.25;;;10.30;99.90;;;;;;10101146;28;20053;-59
2023/04/13 00:08:29;;;;;;;0.85;0.55;;;10.20;99.90;;;;;;10101786;28;20053;-60
2023/04/13 00:13:20;;;;;;;1.35;0.40;;;10.20;99.90;;;;;;10087312;28;20032;-59
2023/04/13 00:18:11;;;;;;;0.60;0.40;;;10.10;99.90;;;;;;10091661;28;20088;-58
2023/04/13 00:23:02;;;;;;;0.45;0.30;;;10.00;99.90;;;;;;10098604;28;20044;-61
2023/04/13 00:27:53;;;;;;;1.20;0.55;;;10.10;99.90;;;;;;10101937;28;20116;-60
2023/04/13 00:32:44;;;;;;;2.20;0.60;;;10.00;99.90;;;;;;10100247;28;20107;-59
2023/04/13 00:37:36;;;;;;;1.13;0.30;;;10.10;99.90;;;;;;10102506;28;20041;-60
2023/04/13 00:42:26;;;;;;;3.15;0.68;;;10.00;99.90;;;;;;10105363;28;20044;-59
2023/04/13 00:47:32;;;;;;;0.40;0.32;;;10.00;99.90;;;;;;10111953;28;20044;-62
2023/04/13 00:52:23;;;;;;;;;;;9.90;99.90;;;;;;10102301;28;20018;-64
2023/04/13 00:57:15;;;;;;;0.98;0.30;;;9.90;99.90;;;;;;10100756;28;19921;-62
2023/04/13 01:02:06;;;;;;;1.45;0.30;;;9.90;99.90;;;;;;10100684;28;20076;-62
2023/04/13 01:07:11;;;;;;;0.50;0.40;;;9.80;99.90;;;;;;10100049;28;20057;-61
2023/04/13 01:12:16;;;;;;;1.33;0.90;;;9.80;99.90;;;;;;10100016;28;20420;-61
2023/04/13 01:17:15;;;;;;;1.75;0.55;;;9.80;99.90;;;;;;10102720;28;20076;-61
2023/04/13 01:22:11;;;;;;;0.98;0.50;;;9.80;99.90;;;;;;10098803;28;20032;-59
2023/04/13 01:27:41;;;;;;;0.57;0.50;;;9.70;99.90;;;;;;10099683;28;20032;-60
2023/04/13 01:32:32;;;;;;;0.65;0.40;;;9.70;99.90;;;;;;10091761;28;20132;-59
2023/04/13 01:37:24;;;;;;;0.93;0.40;;;9.60;99.90;;;;;;10107208;28;20143;-59
2023/04/13 01:42:15;;;;;;;2.88;0.47;;;9.50;99.90;;;;;;10098941;28;20047;-57
2023/04/13 01:47:17;;;;;;;1.52;0.47;;;9.50;99.90;;;;;;10109466;28;20441;-59
2023/04/13 01:52:10;;;;;;;1.52;0.43;;;9.50;99.90;;;;;;10098912;28;20021;-59
2023/04/13 01:57:02;;;;;;;2.42;0.60;;;9.50;99.90;;;;;;10098923;28;20044;-58
2023/04/13 02:01:53;;;;;;;3.47;0.60;;;9.50;99.90;;;;;;10098518;28;20306;-60
2023/04/13 02:06:45;;;;;;;2.15;0.35;;;9.50;99.90;;;;;;10098470;28;20128;-62
2023/04/13 02:11:36;;;;;;;0.65;0.40;;;9.40;99.90;;;;;;10098358;28;20033;-58
2023/04/13 02:16:27;;;;;;;1.25;0.38;;;9.30;99.90;;;;;;10100776;28;20032;-59
2023/04/13 02:21:18;;;;;;;2.65;0.63;;;9.30;99.90;;;;;;10099018;28;20503;-59
2023/04/13 02:26:15;;;;;;;1.45;0.45;;;9.30;99.90;;;;;;10100058;28;20049;-58
2023/04/13 02:31:06;;;;;;;1.95;0.60;;;9.40;99.90;;;;;;10105183;28;20412;-59
2023/04/13 02:35:57;;;;;;;1.48;0.50;;;9.30;99.90;;;;;;10114221;28;20037;-59
2023/04/13 02:40:52;;;;;;;0.90;0.57;;;9.20;99.90;;;;;;10105868;28;20519;-58
2023/04/13 02:45:43;;;;;;;2.00;0.73;;;9.20;99.90;;;;;;10106844;28;20041;-61
2023/04/13 02:50:33;;;;;;;2.50;0.40;;;9.20;99.90;;;;;;10113806;28;20025;-60
2023/04/13 02:55:24;;;;;;;1.67;0.47;;;9.20;99.90;;;;;;10101632;28;20045;-62
2023/04/13 03:00:15;;;;;;;2.83;0.50;;;9.30;99.90;;;;;;10098712;28;20045;-61
2023/04/13 03:05:06;;;;;;;2.40;0.77;;;9.20;99.90;;;;;;10101539;28;20073;-60
2023/04/13 03:10:00;;;;;;;2.05;0.60;;;9.30;99.90;;;;;;10089504;28;20064;-58
2023/04/13 03:14:50;;;;;;;1.67;0.50;;;9.30;99.90;;;;;;10104371;28;20252;-60
2023/04/13 03:19:45;;;;;;;3.63;0.60;;;9.30;99.90;;;;;;10107500;28;20051;-59
2023/04/13 03:24:36;;;;;;;1.80;0.52;;;9.40;99.90;;;;;;10104094;28;20037;-60
2023/04/13 03:29:26;;;;;;;4.53;1.73;;;9.40;99.90;;;;;;10109229;28;20136;-59
2023/04/13 03:34:17;;;;;;;1.85;0.85;;;9.50;99.90;;;;;;10097993;28;20041;-62
2023/04/13 03:39:08;;;;;;;3.63;0.55;;;9.50;99.90;;;;;;10102867;28;20392;-56
2023/04/13 03:43:58;;;;;;;2.53;0.98;;;9.40;99.90;;;;;;10103275;28;20033;-59
2023/04/13 03:48:49;;;;;;;2.67;0.60;;;9.50;99.90;;;;;;10115524;28;20021;-60
2023/04/13 03:53:40;;;;;;;2.75;0.70;;;9.50;99.90;;;;;;10101870;28;20037;-61
2023/04/13 03:58:30;;;;;;;3.75;1.23;;;9.50;99.90;;;;;;10102509;28;20131;-59
2023/04/13 04:03:24;;;;;;;4.22;0.68;;;9.50;99.90;;;;;;10108062;28;20049;-59
2023/04/13 04:08:14;;;;;;;3.92;0.90;;;9.40;99.90;;;;;;10102801;28;20033;-63
2023/04/13 04:13:05;;;;;;;2.92;0.50;;;9.40;99.90;;;;;;10102172;28;20029;-57
2023/04/13 04:17:56;;;;;;;3.40;0.90;;;9.40;99.90;;;;;;10105131;28;20502;-59
2023/04/13 04:22:48;;;;;;;3.53;1.08;;;9.30;99.90;;;;;;10101481;28;20035;-59
2023/04/13 04:27:39;;;;;;;5.35;1.40;;;9.30;99.90;;;;;;10109984;28;20041;-60
2023/04/13 04:32:29;;;;;;;3.20;0.80;;;9.30;99.90;;;;;;10103562;28;20047;-60
2023/04/13 04:37:20;;;;;;;3.35;0.80;;;9.30;99.90;;;;;;10101291;28;20045;-60
2023/04/13 04:42:11;;;;;;;3.05;1.17;;;9.20;99.90;;;;;;10101085;28;20037;-61
2023/04/13 04:47:05;;;;;;;3.67;0.77;;;9.20;99.90;;;;;;10110601;28;20033;-59
2023/04/13 04:51:56;;;;;;;3.75;1.63;;;9.10;99.90;;;;;;10101249;28;20072;-60
2023/04/13 04:56:47;;;;;;;3.00;1.00;;;9.10;99.90;;;;;;10101517;28;20037;-61
2023/04/13 05:01:38;;;;;;;1.90;0.60;;;9.20;99.90;;;;;;10100535;28;20252;-61
2023/04/13 05:06:32;;;;;;;3.20;0.80;;;9.20;99.90;;;;;;10096612;28;20071;-62
2023/04/13 05:11:23;;;;;;;3.97;1.30;;;9.20;99.90;;;;;;10093203;28;20037;-59
2023/04/13 05:16:13;;;;;;;1.42;0.68;;;9.20;99.90;;;;;;10098919;28;20040;-57
2023/04/13 05:21:04;;;;;;;1.30;0.50;;;9.20;99.90;;;;;;10101848;28;20025;-60
2023/04/13 05:25:55;;;;;;;2.08;0.40;;;9.20;99.90;;;;;;10099340;28;20142;-60
2023/04/13 05:30:47;;;;;;;0.98;0.70;;;9.10;99.90;;;;;;10099101;28;20179;-60
2023/04/13 05:35:39;;;;;;;1.63;0.70;;;9.10;99.90;;;;;;10099198;28;20523;-58
2023/04/13 05:40:32;;;;;;;2.13;0.68;;;9.10;99.90;;;;;;10099336;28;20542;-60
2023/04/13 05:45:23;;;;;;;1.17;0.45;;;9.20;99.90;;;;;;10101838;28;20023;-59
2023/04/13 05:50:13;;;;;;;2.10;0.80;;;9.30;99.90;;;;;;10108956;28;20029;-59
2023/04/13 05:55:05;;;;;;;4.50;0.80;;;9.40;99.90;;;;;;10088217;28;20036;-60
2023/04/13 05:59:56;;;;;;;1.65;0.90;;;9.40;99.90;;;;;;10086297;28;20089;-60
2023/04/13 06:04:47;;;;;;;2.78;1.05;;;9.30;99.90;;;;;;10085598;28;20163;-59
2023/04/13 06:09:38;;;;;;;1.70;0.70;;;9.40;99.90;;;;;;10085911;28;20041;-58
2023/04/13 06:14:28;;;;;;;5.07;1.85;;;9.50;99.90;;;;;;10086929;28;20063;-57
2023/04/13 06:19:19;;;;;;;1.55;0.82;;;9.40;99.90;;;;;;10091234;28;20181;-54
2023/04/13 06:24:10;;;;;;;1.90;0.95;;;9.40;99.90;;;;;;10086754;28;20040;-60
2023/04/13 06:29:01;;;;;;;3.40;1.92;;;9.50;99.90;;;;;;10087609;28;20051;-57
2023/04/13 06:33:52;;;;;;;2.08;1.17;;;9.50;99.90;;;;;;10086843;28;20025;-58
2023/04/13 06:38:43;;;;;;;2.00;0.68;;;9.50;99.90;;;;;;10085826;28;20048;-59
2023/04/13 06:43:33;;;;;;;0.93;0.43;;;9.50;99.90;;;;;;10087914;28;20271;-63
2023/04/13 06:48:24;;;;;;;3.13;1.00;;;9.60;99.90;;;;;;10089427;28;20036;-60
2023/04/13 06:53:15;;;;;;;1.02;0.73;;;9.60;99.90;;;;;;10082953;28;20052;-61
2023/04/13 06:58:06;;;;;;;2.20;0.85;;;9.60;99.90;;;;;;10085982;28;20049;-60
2023/04/13 07:02:57;;;;;;;3.47;1.20;;;9.60;99.90;;;;;;10087972;28;20445;-60
2023/04/13 07:07:47;;;;;;;3.05;1.20;;;9.70;99.90;;;;;;10090179;28;20041;-60
2023/04/13 07:12:38;;;;;;;2.70;1.00;;;9.70;99.90;;;;;;10106280;28;20021;-59
2023/04/13 07:17:29;;;;;;;3.13;0.98;;;9.90;99.90;;;;;;10102222;28;20045;-60
2023/04/13 07:22:19;;;;;;;3.75;1.20;;;10.00;99.90;;;;;;10103118;28;20029;-59
2023/04/13 07:27:10;;;;;;;3.67;1.20;;;10.10;99.90;;;;;;10104158;28;20040;-61
2023/04/13 07:32:03;;;;;;;6.40;1.17;;;10.20;99.90;;;;;;10094897;28;20060;-58
2023/04/13 07:36:53;;;;;;;4.70;1.23;;;10.30;99.90;;;;;;10089463;28;20038;-60
2023/04/13 07:41:45;;;;;;;5.28;1.33;;;10.40;99.90;;;;;;10089599;28;20040;-56
2023/04/13 07:46:37;;;;;;;4.60;1.60;;;10.40;99.90;;;;;;10112511;28;20490;-56
2023/04/13 07:51:28;;;;;;;4.07;1.42;;;10.70;99.90;;;;;;10094136;28;20029;-55
2023/04/13 07:56:20;;;;;;;6.18;1.52;;;11.00;99.90;;;;;;10103848;28;20399;-59
2023/04/13 08:01:11;;;;;;;3.95;1.27;;;11.10;99.90;;;;;;10103197;28;20024;-60
2023/04/13 08:06:06;;;;;;;2.42;1.10;;;11.50;99.90;;;;;;10100892;28;20044;-60
2023/04/13 08:10:56;;;;;;;6.32;2.47;;;11.50;99.90;;;;;;10103834;28;20029;-50
2023/04/13 08:15:48;;;;;;;4.45;1.15;;;11.50;99.90;;;;;;10094553;28;20036;-51
2023/04/13 08:20:38;;;;;;;3.95;1.08;;;11.60;99.90;;;;;;10092502;28;20017;-59
2023/04/13 08:25:29;;;;;;;3.60;1.42;;;11.60;99.90;;;;;;10092117;28;20037;-61
2023/04/13 08:30:20;;;;;;;3.88;1.65;;;11.90;99.90;;;;;;10090616;28;20554;-59
2023/04/13 08:35:11;;;;;;;3.25;1.20;;;11.70;99.90;;;;;;10090037;28;20040;-57
2023/04/13 08:40:06;;;;;;;3.08;1.17;;;11.60;99.90;;;;;;10101687;28;20033;-56
2023/04/13 08:44:59;;;;;;;8.10;1.50;;;11.50;99.90;;;;;;10099091;28;20402;-59
2023/04/13 08:49:51;;;;;;;5.50;1.33;;;11.40;99.90;;;;;;10098455;28;20498;-57
2023/04/13 08:54:42;;;;;;;3.80;1.42;;;11.50;99.90;;;;;;10099275;28;20029;-59
2023/04/13 08:59:37;;;;;;;3.88;1.42;;;11.40;99.90;;;;;;10092965;28;20051;-58
2023/04/13 09:04:33;;;;;;;3.33;1.63;;;11.40;99.90;;;;;;10092738;28;20041;-59
2023/04/13 09:09:26;;;;;;;6.13;1.42;;;11.30;99.90;;;;;;10091787;28;20025;-60
2023/04/13 09:14:20;;;;;;;4.38;1.50;;;11.20;99.90;;;;;;10091149;28;20040;-58
2023/04/13 09:19:12;;;;;;;3.13;1.33;;;11.30;99.90;;;;;;10095631;28;20123;-60
2023/04/13 09:24:05;;;;;;;4.43;1.33;;;11.60;99.90;;;;;;10087120;28;20056;-57
2023/04/13 09:28:56;;;;;;;4.63;1.52;;;11.60;99.90;;;;;;10099689;28;20033;-54
2023/04/13 09:33:49;;;;;;;4.70;1.40;;;11.90;99.90;;;;;;10098670;28;20107;-58
2023/04/13 09:38:52;;;;;;;4.53;1.65;;;12.00;99.90;;;;;;10090851;28;20037;-61
2023/04/13 09:43:42;;;;;;;7.13;2.25;;;11.80;99.90;;;;;;10089088;28;20025;-54
2023/04/13 09:48:33;;;;;;;5.00;1.27;;;11.60;99.90;;;;;;10091521;28;20119;-59
2023/04/13 09:53:24;;;;;;;5.65;1.10;;;11.40;99.90;;;;;;10090022;28;20411;-59
2023/04/13 09:58:16;;;;;;;4.43;1.80;;;11.20;99.90;;;;;;10089543;28;20040;-58
2023/04/13 10:03:12;;;;;;;4.03;1.00;;;11.20;99.90;;;;;;10086507;28;20044;-58
2023/04/13 10:08:04;;;;;;;8.63;1.73;;;11.40;99.90;;;;;;10083680;28;20053;-50
2023/04/13 10:12:59;;;;;;;2.42;1.20;;;11.70;99.90;;;;;;10096295;22;21065;-60
2023/04/13 10:18:26;;;;;;;0.60;0.52;;;11.60;99.90;;;;;;10097579;28;20119;-64
2023/04/13 10:23:18;;;;;;;1.35;0.73;;;11.80;99.90;;;;;;10075182;28;20132;-66
2023/04/13 10:28:09;;;;;;;1.65;0.75;;;11.80;99.90;;;;;;10097685;28;20041;-67
2023/04/13 10:33:02;;;;;;;3.15;1.00;;;12.10;99.90;;;;;;10098296;28;20033;-65
2023/04/13 10:37:56;;;;;;;2.13;0.82;;;12.40;99.90;;;;;;10097657;28;20163;-65
2023/04/13 10:42:47;;;;;;;3.53;1.27;;;12.60;99.90;;;;;;10096914;28;20029;-66
2023/04/13 10:47:38;;;;;;;4.25;0.95;;;12.60;99.90;;;;;;10099257;28;20029;-65
2023/04/13 10:52:29;;;;;;;1.13;0.85;;;12.60;99.90;;;;;;10104368;28;20044;-65
2023/04/13 10:57:20;;;;;;;4.72;1.35;;;12.70;99.90;;;;;;10103672;28;20049;-65
2023/04/13 11:02:13;;;;;;;4.40;1.30;;;13.00;99.90;;;;;;10100216;28;20017;-66
2023/04/13 11:07:06;;;;;;;2.75;0.77;;;13.10;99.80;;;;;;10116823;28;20406;-65
2023/04/13 11:11:57;;;;;;;1.55;0.82;;;12.90;99.70;;;;;;10118115;28;20162;-67
2023/04/13 11:16:48;;;;;;;1.33;0.93;;;12.50;99.90;;;;;;10130990;28;20595;-65
2023/04/13 11:21:38;;;;;;;2.90;1.15;;;12.20;99.80;;;;;;10111052;28;20029;-66
2023/04/13 11:26:35;;;;;;;1.83;0.77;;;12.00;99.70;;;;;;10117846;28;20403;-65
2023/04/13 11:31:39;;;;;;;2.95;0.90;;;12.20;99.40;;;;;;10114649;28;20025;-66
2023/04/13 11:36:31;;;;;;;0.75;0.68;;;12.50;99.00;;;;;;10120140;28;20032;-65
2023/04/13 11:41:22;;;;;;;5.47;1.00;;;12.60;99.10;;;;;;10119469;28;20460;-65
2023/04/13 11:46:14;;;;;;;3.42;1.30;;;12.40;99.00;;;;;;10117902;28;20447;-66
2023/04/13 11:51:05;;;;;;;2.10;1.30;;;12.30;98.90;;;;;;10113543;28;20109;-62
2023/04/13 11:55:56;;;;;;;3.22;1.10;;;12.20;98.90;;;;;;10114395;28;20108;-63
2023/04/13 12:00:48;;;;;;;3.75;1.50;;;11.90;99.10;;;;;;10087361;28;20043;-66
2023/04/13 12:05:42;;;;;;;2.67;1.05;;;12.20;99.20;;;;;;10101588;28;20059;-71
2023/04/13 12:10:35;;;;;;;1.23;0.80;;;12.80;99.10;;;;;;10089296;28;20625;-70
2023/04/13 12:15:30;;;;;;;2.70;0.80;;;12.90;99.20;;;;;;10090096;28;20295;-69
2023/04/13 12:20:21;;;;;;;2.13;0.98;;;12.60;99.20;;;;;;10101755;28;20123;-68
2023/04/13 12:25:20;;;;;;;3.10;1.15;;;12.50;99.20;;;;;;10074066;23;20069;-61
2023/04/13 12:30:12;;;;;;;2.83;1.10;;;12.50;99.10;;;;;;10024573;28;20092;-60
2023/04/13 12:35:03;;;;;;;1.90;1.13;;;12.00;99.20;;;;;;10025701;28;20485;-52
2023/04/13 12:39:54;;;;;;;5.90;1.70;;;11.60;99.80;;;;;;10041937;28;20112;-57
2023/04/13 12:44:44;;;;;;;12.75;3.58;;;11.50;99.90;;;;;;10022999;28;20173;-57
2023/04/13 12:49:35;;;;;;;3.97;2.17;;;12.10;99.90;;;;;;10040834;28;20025;-59
2023/04/13 12:54:27;;;;;;;5.43;2.58;;;12.30;99.90;;;;;;10048431;28;20092;-57
2023/04/13 12:59:20;;;;;;;4.57;1.90;;;12.30;99.90;;;;;;10027516;28;20041;-60
2023/04/13 13:04:11;;;;;;;7.97;2.45;;;12.40;99.90;;;;;;10039719;28;20058;-60
2023/04/13 13:09:01;;;;;;;7.43;2.70;;;12.60;99.90;;;;;;10024921;28;20059;-59
2023/04/13 13:13:52;;;;;;;4.55;1.55;;;13.30;99.90;;;;;;10025976;28;20431;-56
2023/04/13 13:18:42;;;;;;;3.67;1.38;;;15.70;99.90;;;;;;10022255;28;20040;-57
2023/04/13 13:23:33;;;;;;;2.80;1.20;;;18.70;99.40;;;;;;10021269;28;20046;-58
2023/04/13 13:28:24;;;;;;;6.22;1.83;;;17.10;99.00;;;;;;10022686;28;20373;-59
2023/04/13 13:33:14;;;;;;;3.17;1.30;;;15.40;99.60;;;;;;10019731;28;20096;-56
2023/04/13 13:38:05;;;;;;;1.77;1.08;;;14.40;99.40;;;;;;10020372;28;20041;-58
2023/04/13 13:42:56;;;;;;;1.85;0.77;;;16.90;98.40;;;;;;10021126;28;20030;-57
2023/04/13 13:47:51;;;;;;;1.83;1.00;;;19.50;96.50;;;;;;10021379;28;20032;-56
2023/04/13 13:52:42;;;;;;;2.65;0.80;;;20.50;95.70;;;;;;10023013;28;20124;-57
2023/04/13 13:57:33;;;;;;;1.40;0.85;;;21.00;95.00;;;;;;10020988;28;20555;-57
2023/04/13 14:02:23;;;;;;;9.90;5.82;;;20.40;94.50;;;;;;10029618;28;20025;-60
2023/04/13 14:07:14;;;;;;;5.57;1.98;;;20.30;94.50;;;;;;10020984;28;20092;-57
2023/04/13 14:12:05;;;;;;;2.85;1.00;;;20.30;93.70;;;;;;10018744;28;20109;-58
2023/04/13 14:16:59;;;;;;;1.73;0.90;;;19.70;93.10;;;;;;10032125;28;20116;-61
2023/04/13 14:21:52;;;;;;;2.33;0.95;;;20.10;92.60;;;;;;10025770;28;20358;-56
2023/04/13 14:26:43;;;;;;;3.83;1.40;;;20.60;91.80;;;;;;10033240;28;20469;-59
2023/04/13 14:31:34;;;;;;;5.50;1.27;;;20.20;90.90;;;;;;10032802;28;20061;-60
2023/04/13 14:36:25;;;;;;;5.47;1.25;;;20.10;90.50;;;;;;10034260;28;20481;-54
2023/04/13 14:41:16;;;;;;;3.42;1.10;;;20.10;90.00;;;;;;10034838;28;20022;-58
2023/04/13 14:46:07;;;;;;;4.20;1.05;;;20.50;88.20;;;;;;10036174;28;20022;-57
2023/04/13 14:50:58;;;;;;;2.92;1.52;;;22.80;85.80;;;;;;10031714;28;20018;-57
2023/04/13 14:55:49;;;;;;;3.85;1.55;;;23.90;82.90;;;;;;10035364;28;20042;-52
2023/04/13 15:00:40;;;;;;;5.65;1.73;;;22.60;79.80;;;;;;10033861;28;20504;-58
2023/04/13 15:05:43;;;;;;;3.15;2.10;;;21.30;80.60;;;;;;10043890;28;20034;-60
2023/04/13 15:10:34;;;;;;;5.75;1.67;;;19.50;79.60;;;;;;10034538;28;20164;-63
2023/04/13 15:15:24;;;;;;;3.63;1.58;;;20.40;77.80;;;;;;10031669;28;20516;-57
2023/04/13 15:20:16;;;;;;;4.10;1.52;;;19.80;77.30;;;;;;10033632;28;20048;-64
2023/04/13 15:25:07;;;;;;;4.70;1.40;;;20.00;77.30;;;;;;10033646;28;20045;-63
2023/04/13 15:30:02;;;;;;;3.58;1.00;;;22.00;75.00;;;;;;10047538;28;20037;-63
2023/04/13 15:34:55;;;;;;;3.55;1.40;;;20.80;74.50;;;;;;10032345;28;20049;-59
2023/04/13 15:39:45;;;;;;;4.63;1.30;;;22.50;73.00;;;;;;10039928;28;20520;-59
2023/04/13 15:44:36;;;;;;;6.47;1.58;;;21.70;72.20;;;;;;10031118;28;20124;-59
2023/04/13 15:49:26;;;;;;;3.97;1.35;;;22.60;71.20;;;;;;10046647;28;20129;-59
2023/04/13 15:54:17;;;;;;;5.38;1.65;;;25.40;67.80;;;;;;10025247;28;20037;-57
2023/04/13 15:59:08;;;;;;;6.28;1.70;;;22.90;67.80;;;;;;10022874;28;20053;-57
2023/04/13 16:03:58;;;;;;;7.63;1.70;;;19.70;71.80;;;;;;10026938;28;20073;-57
2023/04/13 16:08:49;;;;;;;3.90;2.03;;;19.60;71.80;;;;;;10027008;28;20170;-54
2023/04/13 16:13:40;;;;;;;4.88;2.58;;;18.60;71.70;;;;;;10020423;28;20129;-54
2023/04/13 16:18:31;;;;;;;6.38;2.75;;;20.20;70.10;;;;;;10024844;28;20034;-56
2023/04/13 16:23:23;;;;;;;7.25;2.63;;;22.10;67.00;;;;;;10022949;28;20057;-55
2023/04/13 16:28:15;;;;;;;4.85;1.45;;;22.60;66.90;;;;;;10025683;28;20037;-54
2023/04/13 16:33:05;;;;;;;6.53;1.90;;;20.60;67.40;;;;;;10035314;28;20116;-57
2023/04/13 16:37:56;;;;;;;3.30;1.85;;;18.60;69.70;;;;;;10037919;28;20152;-55
2023/04/13 16:42:47;;;;;;;5.95;1.48;;;19.30;67.60;;;;;;10023271;28;20022;-56
2023/04/13 16:47:38;;;;;;;4.93;1.50;;;18.40;66.90;;;;;;10030940;28;20439;-55
2023/04/13 16:52:32;;;;;;;4.90;1.58;;;17.80;67.30;;;;;;10034838;28;20034;-53
2023/04/13 16:57:22;;;;;;;3.67;1.58;;;17.40;67.70;;;;;;10021642;28;20045;-54
2023/04/13 17:02:13;;;;;;;8.00;2.15;;;16.90;68.00;;;;;;10023816;28;20029;-59
2023/04/13 17:07:04;;;;;;;2.67;1.50;;;16.50;68.50;;;;;;10023081;28;20472;-56
2023/04/13 17:11:55;;;;;;;4.97;1.90;;;16.10;68.90;;;;;;10029087;28;20053;-58
2023/04/13 17:16:45;;;;;;;5.10;1.63;;;15.70;69.40;;;;;;10034677;28;20033;-56
2023/04/13 17:21:37;;;;;;;8.68;2.25;;;15.50;69.80;;;;;;10027171;28;20034;-58
2023/04/13 17:26:28;;;;;;;6.22;1.70;;;15.20;69.80;;;;;;10035712;28;20050;-59
2023/04/13 17:31:19;;;;;;;4.13;1.48;;;14.90;70.20;;;;;;10035907;28;20510;-58
2023/04/13 17:36:10;;;;;;;4.28;1.48;;;14.80;70.40;;;;;;10043129;28;20088;-55
2023/04/13 17:41:00;;;;;;;3.53;1.77;;;14.80;70.70;;;;;;10020878;28;20108;-56
2023/04/13 17:45:51;;;;;;;4.78;1.67;;;14.80;70.60;;;;;;10022833;28;20484;-52
2023/04/13 17:50:42;;;;;;;5.20;1.70;;;14.80;70.80;;;;;;10020092;28;20026;-56
2023/04/13 17:55:35;;;;;;;8.68;3.20;;;14.80;70.80;;;;;;10025005;28;20048;-61
2023/04/13 18:00:27;;;;;;;8.70;2.28;;;14.90;70.80;;;;;;10027406;28;20033;-54
2023/04/13 18:05:18;;;;;;;6.15;2.10;;;14.70;71.20;;;;;;10019467;28;20452;-58
2023/04/13 18:10:09;;;;;;;3.30;1.60;;;14.60;71.30;;;;;;10033232;28;20030;-56
2023/04/13 18:15:00;;;;;;;8.88;2.55;;;14.60;71.50;;;;;;10031155;28;20049;-56
2023/04/13 18:19:52;;;;;;;5.93;2.25;;;14.50;71.70;;;;;;10018897;28;20078;-53
2023/04/13 18:24:43;;;;;;;4.97;1.80;;;14.40;71.90;;;;;;10018226;28;20300;-54
2023/04/13 18:29:34;;;;;;;5.78;1.75;;;14.30;71.80;;;;;;10052409;28;20312;-52
2023/04/13 18:34:26;;;;;;;4.85;2.50;;;14.20;72.00;;;;;;10019096;28;20026;-51
2023/04/13 18:39:18;;;;;;;7.15;2.58;;;14.00;72.40;;;;;;10032069;28;20444;-56
2023/04/13 18:44:08;;;;;;;4.40;2.42;;;14.10;72.40;;;;;;10031970;28;20545;-55
2023/04/13 18:48:59;;;;;;;3.47;1.90;;;14.00;72.50;;;;;;10017247;28;20149;-52
2023/04/13 18:53:49;;;;;;;7.03;2.03;;;14.10;72.50;;;;;;10031740;28;20114;-52
2023/04/13 18:58:40;;;;;;;9.32;3.83;;;14.10;72.80;;;;;;10020283;28;20484;-55
2023/04/13 19:03:31;;;;;;;7.00;3.53;;;14.00;72.60;;;;;;10010468;28;20022;-55
2023/04/13 19:08:21;;;;;;;9.85;4.13;;;14.00;72.80;;;;;;10043457;28;20045;-52
2023/04/13 19:13:14;;;;;;;8.30;3.05;;;13.90;73.10;;;;;;10063092;28;20029;-57
2023/04/13 19:18:05;;;;;;;4.88;2.90;;;13.80;73.40;;;;;;10057670;28;20049;-61
2023/04/13 19:22:55;;;;;;;7.45;2.78;;;13.60;74.00;;;;;;10049820;28;20042;-60
2023/04/13 19:27:47;;;;;;;9.32;4.03;;;13.40;74.80;;;;;;10056974;28;20522;-53
2023/04/13 19:32:39;;;;;;;5.38;2.65;;;13.30;75.40;;;;;;10051425;28;20025;-56
2023/04/13 19:37:30;;;;;;;4.68;2.10;;;13.30;76.00;;;;;;10060962;28;20041;-57
2023/04/13 19:42:21;;;;;;;8.00;2.72;;;13.30;76.40;;;;;;10062576;28;20033;-56
2023/04/13 19:47:11;;;;;;;10.55;2.67;;;13.20;76.90;;;;;;10057233;28;20036;-54
2023/04/13 19:52:02;;;;;;;7.13;2.40;;;13.10;77.60;;;;;;10060160;28;20033;-57
2023/04/13 19:56:53;;;;;;;9.32;3.08;;;12.90;78.30;;;;;;10058916;28;20037;-51
2023/04/13 20:01:44;;;;;;;3.17;2.17;;;12.70;79.20;;;;;;10020302;28;20026;-54
2023/04/13 20:06:35;;;;;;;11.93;2.85;;;12.70;79.80;;;;;;10027238;28;20176;-56
2023/04/13 20:11:26;;;;;;;4.88;2.10;;;12.70;80.10;;;;;;10027957;28;20414;-55
2023/04/13 20:16:17;;;;;;;6.00;2.83;;;12.50;80.60;;;;;;10020901;28;20038;-56
2023/04/13 20:21:09;;;;;;;6.43;2.20;;;12.50;81.20;;;;;;10004882;28;20073;-58
2023/04/13 20:26:00;;;;;;;4.63;2.55;;;12.50;81.60;;;;;;10021684;28;20532;-53
2023/04/13 20:30:51;;;;;;;6.97;3.08;;;12.50;82.00;;;;;;10018350;28;20025;-52
2023/04/13 20:35:41;;;;;;;8.30;3.70;;;12.40;82.60;;;;;;10022577;28;20515;-53
2023/04/13 20:40:34;;;;;;;6.60;2.95;;;12.30;83.30;;;;;;10036246;28;20038;-51
2023/04/13 20:45:26;;;;;;;10.75;3.95;;;12.20;83.70;;;;;;10035192;28;20064;-52
2023/04/13 20:50:20;;;;;;;8.13;3.65;;;12.20;84.10;;;;;;10021589;28;20029;-52
2023/04/13 20:55:11;;;;;;;8.77;4.13;;;12.10;85.00;;;;;;10035054;28;20120;-54
2023/04/13 21:00:06;;;;;;;6.55;3.20;;;11.90;85.80;;;;;;10020001;28;20121;-50
2023/04/13 21:04:57;;;;;;;9.13;3.47;;;12.00;86.00;;;;;;10017708;28;20034;-55
2023/04/13 21:09:48;;;;;;;13.68;4.03;;;11.80;86.80;;;;;;10022931;28;20046;-55
2023/04/13 21:14:41;;;;;;;9.02;2.95;;;11.80;87.10;;;;;;10034317;28;20231;-56
2023/04/13 21:19:31;;;;;;;5.07;2.75;;;11.80;87.60;;;;;;10013957;28;20048;-57
2023/04/13 21:24:22;;;;;;;4.97;2.85;;;11.60;87.90;;;;;;10020933;28;20134;-57
2023/04/13 21:29:15;;;;;;;5.50;2.00;;;11.50;88.10;;;;;;10034230;28;20404;-55
2023/04/13 21:34:05;;;;;;;5.75;2.50;;;11.30;88.40;;;;;;10020182;28;20121;-54
2023/04/13 21:38:56;;;;;;;5.13;1.92;;;11.40;88.50;;;;;;10020713;28;20121;-53
2023/04/13 21:43:47;;;;;;;5.25;2.13;;;11.40;88.20;;;;;;10031531;28;20380;-54
2023/04/13 21:48:38;;;;;;;2.95;1.58;;;11.40;88.10;;;;;;10027978;28;20385;-55
2023/04/13 21:53:29;;;;;;;7.32;2.17;;;11.30;88.20;;;;;;10026595;28;20083;-57
2023/04/13 21:58:20;;;;;;;4.65;2.15;;;11.30;88.20;;;;;;10019326;28;20050;-52
2023/04/13 22:03:11;;;;;;;4.00;1.30;;;11.10;88.50;;;;;;10012783;28;20025;-54
2023/04/13 22:08:02;;;;;;;4.85;1.50;;;11.00;88.30;;;;;;10026281;28;20041;-59
2023/04/13 22:12:53;;;;;;;2.50;1.38;;;11.00;88.20;;;;;;10029580;28;20036;-58
2023/04/13 22:17:43;;;;;;;3.80;1.20;;;11.00;88.60;;;;;;10023498;28;20100;-59
2023/04/13 22:22:34;;;;;;;3.33;1.38;;;10.90;88.80;;;;;;10025595;28;20670;-53
2023/04/13 22:27:25;;;;;;;4.82;2.13;;;10.70;88.70;;;;;;10051147;28;20467;-52
2023/04/13 22:32:15;;;;;;;3.72;2.00;;;10.70;89.00;;;;;;10039398;28;20037;-55
2023/04/13 22:37:06;;;;;;;4.80;1.50;;;10.70;89.10;;;;;;10051570;28;20042;-54
2023/04/13 22:41:58;;;;;;;4.50;1.08;;;10.70;89.10;;;;;;10047261;28;20083;-54
2023/04/13 22:46:48;;;;;;;2.10;1.75;;;10.60;89.30;;;;;;10050980;28;20026;-53
2023/04/13 22:51:39;;;;;;;3.95;1.60;;;10.30;90.00;;;;;;10046621;28;20037;-54
2023/04/13 22:56:30;;;;;;;5.38;1.05;;;10.20;90.00;;;;;;10060018;28;20036;-53
2023/04/13 23:01:20;;;;;;;4.28;1.27;;;10.20;90.00;;;;;;10030700;28;20415;-52
2023/04/13 23:06:11;;;;;;;4.95;1.45;;;10.20;90.00;;;;;;10030494;28;20033;-57
2023/04/13 23:11:09;;;;;;;6.38;1.35;;;10.30;90.10;;;;;;10046679;28;20092;-51
2023/04/13 23:16:00;;;;;;;4.15;1.13;;;10.40;90.10;;;;;;10036489;28;20061;-52
2023/04/13 23:20:50;;;;;;;1.83;1.20;;;10.40;90.20;;;;;;10028626;28;20384;-53
2023/04/13 23:25:41;;;;;;;3.55;1.60;;;10.40;90.20;;;;;;10038303;28;20053;-59
2023/04/13 23:30:31;;;;;;;13.57;4.68;;;10.40;90.40;;;;;;10024304;28;20037;-55
2023/04/13 23:35:22;;;;;;;8.63;3.17;;;10.30;90.40;;;;;;10037757;28;20373;-59
2023/04/13 23:40:13;;;;;;;2.97;1.40;;;10.30;90.50;;;;;;10043409;28;20041;-56
2023/04/13 23:45:04;;;;;;;2.22;1.55;;;10.30;90.50;;;;;;10037323;28;20029;-53
2023/04/13 23:49:55;;;;;;;6.03;1.77;;;10.40;90.40;;;;;;10040877;28;20037;-57
2023/04/13 23:54:45;;;;;;;3.80;1.92;;;10.10;90.80;;;;;;10036154;28;20463;-55
2023/04/13 23:59:36;;;;;;;5.25;1.80;;;10.00;90.90;;;;;;10018291;28;20645;-53
